< < Back
Terminal Aerodrome Forecast


Current Version              Previous Versions:   1  2  3  4  5  6  7  8  9  

Terminal Aerodrome Forecast

893
FTUS42 KMLB 180900 AAA
TAFMCO
TAF AMD
KMCO 180920Z 1809/1906 29002KT P6SM SCT250
     FM181400 32005KT P6SM BKN250=

Latest METAR

864
SAUS70 KWBC 181500 RRL
MTRMCO
METAR KMCO 181453Z 33005KT 10SM FEW160 SCT250 15/09 A3019 RMK AO2 SLP224
T01500089 51015


USA.gov is the U.S. government's official web portal to all federal, state and local government web resources and services.